Weather observations for the past three days for
Norman / Max Westheimer
Imperial (Metric)
Date Time (cdt) Wind (mph) Vis. (mi.) Weather Sky Cond. Temperature (ºF) Relative Humidity Wind Chill (°F) Heat Index (°F) Pressure Precipitation (in)
Air Dwpt 6 hour altimeter (in) sea level (mb) 1 hr 3 hr 6 hr
Max. Min.
06 15:45 E 10 10.00 Fair CLR 100.4 62.6 29% 102 29.89 0.0
06 14:45 E 9 10.00 Fair CLR 100.4 64.4 31% 104 29.91 0.0
06 13:45 E 5 10.00 Partly Cloudy SCT075 98.6 62.6 31% 100 29.94 0.0
06 12:47 SE 7 10.00 Fair CLR 96.8 66.2 37% 100 29.96 0.0
06 11:45 E 6 10.00 Fair CLR 95 66.2 39% 98 29.99 0.0
06 10:45 S 6 10.00 Fair CLR 91.4 66.2 44% 94 29.99 0.0
06 09:55 S 5 10.00 Fair CLR 87.8 68 52% 91 29.98 0.0
06 08:45 S 5 10.00 Fair CLR 82.4 66.2 58% 85 29.98 0.0
06 07:45 Calm 10.00 Fair CLR 75.2 66.2 74% 77 29.96 0.0
06 07:35 Calm 10.00 Fair CLR 75.7 65.7 71% 77 29.96 0.0
06 07:15 Calm 10.00 Fair CLR 77.7 65.5 66% 80 29.95 0.0
06 06:55 SE 5 10.00 Fair CLR 77 64.4 65% 79 29.94 0.0
06 06:35 SE 5 10.00 Fair CLR 77.9 65.3 65% 80 29.94 0.0
06 06:15 S 5 10.00 Fair CLR 77.5 65.3 66% 79 29.93 0.0
06 05:55 S 5 10.00 Fair CLR 77.7 65.5 66% 80 29.93 0.0
06 05:35 S 6 10.00 Fair CLR 78.4 64.9 63% 80 29.93 0.0
06 05:15 SE 3 10.00 Fair CLR 76.3 65.3 69% 78 29.93 0.0
06 04:55 Calm 10.00 Fair CLR 79.5 64.4 60% 81 29.92 0.0
06 04:35 Calm 10.00 Fair CLR 77.7 64.4 64% 80 29.92 0.0
06 04:15 S 3 10.00 Fair CLR 80.2 64.2 58% 82 29.92 0.0
06 03:55 S 3 10.00 Fair CLR 79.7 64.2 59% 81 29.92 0.0
06 03:35 SE 3 10.00 Fair CLR 80.1 63.9 58% 82 29.92 0.0
06 03:15 Calm 10.00 Fair CLR 81.5 63.7 55% 83 29.92 0.0
06 02:55 E 5 10.00 Fair CLR 82.2 63.7 54% 84 29.92 0.0
06 02:35 E 3 10.00 Fair CLR 79 64 60% 81 29.91 0.0
06 02:15 Calm 10.00 Fair CLR 83.5 63.5 51% 85 29.91 0.0
06 01:55 S 3 10.00 Fair CLR 83.3 63.5 51% 85 29.91 0.0
06 01:35 S 5 10.00 Fair CLR 83.8 63.5 50% 85 29.91 0.0
06 01:15 S 5 10.00 Fair CLR 83.1 63.7 52% 84 29.91 0.0
06 00:55 S 5 10.00 Fair CLR 84 63.5 97.5 83.5 50% 85 29.91 0.0
06 00:35 S 5 10.00 Fair CLR 83.7 63.5 51% 85 29.91 0.0
06 00:15 S 6 10.00 Fair CLR 83.8 63.5 50% 85 29.91 0.0
05 23:55 S 6 10.00 Fair CLR 84.2 63.3 50% 85 29.91 0.0
05 23:35 S 6 10.00 Fair CLR 84.9 63.3 48% 86 29.91 0.0
05 23:15 S 7 10.00 Fair CLR 85.3 63.3 48% 86 29.91 0.0
05 22:55 S 7 10.00 Fair CLR 86.4 63.3 46% 87 29.91 0.0
05 22:35 S 7 10.00 Fair CLR 86 63.5 47% 87 29.91 0.0
05 22:15 S 6 10.00 Fair CLR 86.7 63.5 46% 88 29.91 0.0
05 21:55 S 6 10.00 Fair CLR 88 63.3 44% 89 29.91 0.0
05 20:45 SE 6 10.00 Fair CLR 89.6 62.6 41% 90 29.89 0.0
05 19:45 SE 6 10.00 Fair CLR 93.2 62.6 36% 94 29.87 0.0
05 18:45 SE 8 10.00 Fair CLR 98.6 62.6 31% 100 29.86 0.0
05 17:45 S 12 10.00 Fair CLR 98.6 62.6 31% 100 29.85 0.0
05 16:45 SE 10 10.00 Fair CLR 98.6 62.6 31% 100 29.86 0.0
05 15:45 S 9 10.00 Fair CLR 98.6 62.6 31% 100 29.89 0.0
05 14:45 E 6 G 17 10.00 Fair CLR 96.8 62.6 32% 98 29.92 0.0
05 12:45 SE 12 10.00 Fair CLR 96.8 62.6 32% 98 29.96 0.0
05 11:45 Calm 10.00 Fair CLR 93.2 66.2 41% 96 29.97 0.0
05 09:45 S 8 10.00 Fair CLR 86 66.2 52% 88 29.97 0.0
05 07:45 S 6 10.00 Fair CLR 96.8 68 39% 102 29.96 0.0
05 07:35 S 7 10.00 Fair CLR 76.3 67.3 74% 78 29.96 0.0
05 07:15 S 6 10.00 Fair CLR 75.9 67.1 74% 77 29.94 0.0
05 06:55 S 6 10.00 Fair CLR 75.6 66.9 85.3 75.6 75% 77 29.94 0.0
05 06:35 S 6 10.00 Fair CLR 75.9 67.1 74% 77 29.94 0.0
05 06:15 S 6 10.00 Fair CLR 76.6 66.9 72% 78 29.94 0.0
05 05:55 S 5 10.00 Fair CLR 76.8 66.9 72% 79 29.93 0.0
05 05:35 S 6 10.00 Fair CLR 77.7 66.9 69% 80 29.93 0.0
05 05:15 S 6 10.00 Fair CLR 77.5 66.9 70% 79 29.93 0.0
05 04:55 S 6 10.00 Fair CLR 78.3 66.7 68% 80 29.93 0.0
05 04:35 S 5 10.00 Fair CLR 79.5 66.9 65% 82 29.93 0.0
05 04:15 S 7 10.00 Fair CLR 79.7 66.9 65% 82 29.93 0.0
05 03:55 S 8 10.00 Fair CLR 80.1 66.9 64% 82 29.92 0.0
05 03:35 S 9 10.00 Fair CLR 80.6 66.9 63% 83 29.92 0.0
05 03:15 S 9 10.00 Fair CLR 80.8 66.9 63% 83 29.92 0.0
05 02:55 S 8 10.00 Fair CLR 81 66.7 62% 83 29.93 0.0
05 02:35 S 8 10.00 Fair CLR 81.7 66.7 61% 84 29.92 0.0
05 02:15 S 8 10.00 Fair CLR 82.4 66.6 59% 85 29.92 0.0
05 01:55 S 9 10.00 Fair CLR 82.9 66.4 57% 85 29.93 0.0
05 01:35 S 9 10.00 Fair CLR 83.5 66.2 56% 86 29.93 0.0
05 01:15 S 9 10.00 Fair CLR 84.7 66 54% 87 29.93 0.0
05 00:55 SE 12 10.00 Fair CLR 85.1 65.8 96.4 84.9 53% 87 29.93 0.0
05 00:35 SE 10 10.00 Fair CLR 85.5 65.8 52% 88 29.92 0.0
05 00:15 S 10 10.00 Fair CLR 86 65.7 51% 88 29.93 0.0
04 23:55 SE 10 10.00 Fair CLR 86.7 65.5 49% 89 29.93 0.0
04 23:35 SE 14 10.00 Fair CLR 87.6 65.5 48% 90 29.93 0.0
04 23:15 SE 12 10.00 Fair CLR 87.8 65.5 48% 90 29.93 0.0
04 22:55 SE 13 10.00 Fair CLR 88.5 65.5 47% 91 29.93 0.0
04 22:35 SE 13 10.00 Fair CLR 88.9 65.7 46% 91 29.92 0.0
04 22:15 SE 13 10.00 Fair CLR 89.2 65.7 46% 92 29.91 0.0
04 21:55 SE 13 10.00 Fair CLR 90.3 65.7 44% 93 29.91 0.0
04 20:45 SE 10 10.00 Fair CLR 91.4 64.4 41% 93 29.88 0.0
04 19:45 SE 13 10.00 Fair CLR 93.2 64.4 39% 95 29.86 0.0
04 17:45 SE 16 10.00 Fair CLR 98.6 66.2 35% 103 29.85 0.0
04 15:45 SE 13 G 20 10.00 Fair CLR 100.4 66.2 33% 105 29.87 0.0
04 14:45 SE 13 10.00 Fair CLR 98.6 66.2 35% 103 29.89 0.0
04 13:45 SE 23 10.00 Fair and Breezy CLR 96.8 64.4 34% 99 29.9 0.0
04 12:45 S 17 10.00 Fair CLR 95 66.2 39% 98 29.93 0.0
04 11:45 SE 21 10.00 Fair and Breezy CLR 91.4 66.2 44% 94 29.94 0.0
04 10:45 SE 14 10.00 Fair CLR 87.8 69.8 55% 93 29.95 0.0
04 09:45 SE 14 10.00 Fair CLR 82.4 69.8 66% 86 29.95 0.0
04 08:45 SE 12 G 17 10.00 Fair CLR 78.8 69.8 74% 81 29.94 0.0
04 07:45 SE 10 10.00 Fair CLR 75.2 68 78% 76 29.93 0.0
04 07:35 SE 9 10.00 Fair CLR 75.4 68.4 79% 76 29.92 0.0
04 07:15 SE 10 10.00 Fair CLR 75.2 68.2 79% 76 29.92 0.0
04 06:55 SE 9 10.00 Partly Cloudy SCT055 75.2 68.2 79.7 75.2 79% 76 29.92 0.0
04 06:45 SE 10 10.00 Mostly Cloudy BKN055 75.2 68 78% 76 29.92 0.0
04 06:35 SE 10 10.00 Mostly Cloudy BKN055 75.7 68.2 77% 77 29.92 0.0
04 06:15 SE 9 10.00 Partly Cloudy SCT055 75.9 68.2 77% 77 29.91 0.0
04 05:35 S 9 10.00 Mostly Cloudy BKN055 77 68.5 75% 79 29.92 0.0
04 05:15 SE 10 10.00 Mostly Cloudy BKN055 77 68.5 75% 79 29.91 0.0
04 04:55 SE 9 10.00 Partly Cloudy SCT055 76.6 68.5 76% 78 29.91 0.0
04 04:35 S 9 10.00 Fair CLR 76.8 68.7 76% 78 29.91 0.0
04 04:15 S 10 10.00 Fair CLR 76.8 68.9 77% 78 29.9 0.0
04 03:55 SE 9 10.00 Fair CLR 77.2 69.1 76% 79 29.91 0.0
04 03:35 SE 9 10.00 Fair CLR 77.2 69.3 77% 79 29.9 0.0
04 03:15 S 8 10.00 Fair CLR 77.7 69.3 75% 80 29.9 0.0
04 02:55 S 9 10.00 Fair CLR 78.1 69.4 75% 80 29.9 0.0
04 02:35 S 10 10.00 Fair CLR 78.1 69.8 76% 80 29.9 0.0
04 02:15 S 10 10.00 Fair CLR 78.6 70 75% 81 29.91 0.0
04 01:55 S 10 10.00 Fair CLR 78.8 70.2 75% 81 29.91 0.0
04 01:35 S 9 10.00 Fair CLR 79 70.2 74% 82 29.91 0.0
04 01:15 SE 14 10.00 Fair CLR 79.3 70.2 74% 82 29.91 0.0
04 00:55 SE 13 10.00 Fair CLR 79.7 70.2 91 79.5 73% 83 29.91 0.0
04 00:35 S 9 10.00 Fair CLR 79.9 70.2 72% 83 29.91 0.0
04 00:15 SE 12 10.00 Fair CLR 80.4 70.2 71% 84 29.9 0.0
03 23:55 SE 12 10.00 Fair CLR 81 70.2 70% 85 29.91 0.0
03 23:35 SE 10 G 17 10.00 Fair CLR 81.5 70 68% 85 29.91 0.0
03 23:15 SE 9 10.00 Fair CLR 82 69.8 67% 86 29.91 0.0
03 22:55 SE 10 10.00 Fair CLR 82.6 69.8 65% 86 29.91 0.0
03 22:35 SE 15 10.00 Fair CLR 83.1 69.6 64% 87 29.91 0.0
03 22:15 SE 12 G 20 10.00 Fair CLR 83.5 69.4 63% 87 29.91 0.0
03 21:55 SE 16 10.00 Fair CLR 84 69.4 62% 88 29.91 0.0
03 20:45 SE 10 G 17 10.00 Fair CLR 86 69.8 59% 91 29.88 0.0
03 19:45 SE 16 10.00 Fair CLR 87.8 69.8 55% 93 29.86 0.0
03 18:45 E 16 G 23 10.00 Fair CLR 91.4 69.8 49% 97 29.85 0.0
03 17:45 E 15 G 21 10.00 Fair CLR 93.2 68 44% 98 29.84 0.0
03 16:45 SE 14 G 20 10.00 Fair CLR 93.2 68 44% 98 29.85 0.0
Date Time (cdt) Wind (mph) Vis. (mi.) Weather Sky Cond. Air Dwpt Max. Min. Relative Humidity Wind Chill (°F) Heat Index (°F) altimeter (in) sea level (mb) 1 hr 3 hr 6 hr
6 hour
Temperature (ºF) Pressure Precipitation (in)